createdAt,value
2022-12-26T00:01:29.558Z,7.59
2022-12-26T00:03:57.128Z,7.76
2022-12-26T00:06:27.271Z,7.20
2022-12-26T00:08:55.254Z,7.42
2022-12-26T00:11:23.324Z,7.60
2022-12-26T00:14:00.229Z,7.36
2022-12-26T00:16:28.365Z,7.46
2022-12-26T00:18:55.823Z,6.54
2022-12-26T00:21:33.308Z,6.33
2022-12-26T00:24:00.905Z,6.74
2022-12-26T00:26:30.876Z,6.86
2022-12-26T00:28:57.616Z,7.45
2022-12-26T00:31:26.934Z,7.46
2022-12-26T00:33:53.919Z,7.57
2022-12-26T00:36:23.766Z,7.81
2022-12-26T00:38:51.650Z,7.89
2022-12-26T00:41:20.188Z,7.84
2022-12-26T00:43:47.144Z,7.90
2022-12-26T00:46:14.386Z,7.90
2022-12-26T00:48:41.092Z,7.81
2022-12-26T00:51:07.904Z,7.91
2022-12-26T00:53:35.501Z,8.00
2022-12-26T00:56:02.365Z,7.96
2022-12-26T00:58:29.304Z,8.00
2022-12-26T01:00:56.161Z,7.96
2022-12-26T01:03:23.010Z,7.86
2022-12-26T01:05:51.805Z,7.84
2022-12-26T01:08:24.141Z,7.87
2022-12-26T01:10:52.143Z,7.91
2022-12-26T01:13:19.349Z,7.84
2022-12-26T01:15:50.954Z,7.86
2022-12-26T01:18:18.210Z,7.91
2022-12-26T01:20:44.896Z,7.91
2022-12-26T01:23:11.746Z,7.89
2022-12-26T01:28:20.297Z,7.43
2022-12-26T01:46:47.126Z,8.03
2022-12-26T01:49:15.347Z,7.97
2022-12-26T01:51:48.750Z,8.08
2022-12-26T01:54:37.179Z,8.15
2022-12-26T01:57:10.850Z,8.06
2022-12-26T01:59:40.615Z,7.49
2022-12-26T02:02:08.894Z,7.50
2022-12-26T02:04:59.954Z,7.88
2022-12-26T02:07:27.184Z,7.84
2022-12-26T02:26:35.011Z,8.29
2022-12-26T02:29:16.693Z,8.30
2022-12-26T02:31:55.829Z,8.28
2022-12-26T02:34:41.502Z,8.26
2022-12-26T02:37:23.725Z,8.23
2022-12-26T02:40:12.284Z,8.26
2022-12-26T02:42:47.745Z,8.26
2022-12-26T02:45:44.762Z,8.24
2022-12-26T02:56:58.703Z,8.23
2022-12-26T03:05:23.912Z,7.85
2022-12-26T03:08:09.757Z,7.81
2022-12-26T03:10:56.105Z,8.21
2022-12-26T03:13:26.447Z,8.22
2022-12-26T03:16:23.099Z,7.49
2022-12-26T03:18:59.315Z,7.56
2022-12-26T03:21:31.849Z,7.68
2022-12-26T03:23:58.748Z,7.38
2022-12-26T03:26:40.080Z,8.19
2022-12-26T03:29:35.023Z,8.09
2022-12-26T03:32:04.576Z,8.12
2022-12-26T03:34:31.270Z,8.15
2022-12-26T03:37:47.497Z,8.17
2022-12-26T03:40:43.251Z,8.15
2022-12-26T03:43:59.194Z,8.14
2022-12-26T03:47:06.441Z,8.14
2022-12-26T03:49:55.389Z,8.12
2022-12-26T03:53:10.329Z,8.13
2022-12-26T03:56:11.661Z,8.12
2022-12-26T03:59:30.864Z,7.79
2022-12-26T04:02:23.281Z,8.07
2022-12-26T04:05:33.555Z,8.09
2022-12-26T04:08:23.993Z,8.06
2022-12-26T04:11:14.613Z,8.05
2022-12-26T04:14:18.709Z,8.16
2022-12-26T04:20:08.560Z,8.15
2022-12-26T04:23:03.429Z,8.17
2022-12-26T04:26:03.454Z,7.69
2022-12-26T04:28:49.454Z,7.65
2022-12-26T04:31:46.741Z,8.13
2022-12-26T04:34:40.452Z,8.11
2022-12-26T04:40:10.942Z,7.67
2022-12-26T04:45:14.157Z,8.03
2022-12-26T04:48:01.083Z,7.93
2022-12-26T04:50:28.158Z,7.65
2022-12-26T04:53:01.300Z,7.69
2022-12-26T04:55:30.368Z,7.87
2022-12-26T04:57:57.806Z,7.94
2022-12-26T05:00:28.301Z,7.96
2022-12-26T05:03:19.103Z,7.11
2022-12-26T05:06:07.384Z,7.63
2022-12-26T05:08:58.791Z,7.83
2022-12-26T05:11:26.218Z,7.78
2022-12-26T05:13:55.106Z,7.68
2022-12-26T05:16:41.297Z,7.61
2022-12-26T05:19:29.756Z,7.20
2022-12-26T05:22:16.428Z,7.96
2022-12-26T05:25:03.970Z,7.97
2022-12-26T05:28:03.019Z,8.14
2022-12-26T05:30:29.873Z,7.82
2022-12-26T05:33:15.058Z,8.03
2022-12-26T05:35:41.925Z,7.95
2022-12-26T05:38:10.917Z,8.14
2022-12-26T05:40:37.836Z,7.90
2022-12-26T05:43:04.797Z,7.92
2022-12-26T05:45:31.849Z,7.78
2022-12-26T05:48:02.315Z,7.96
2022-12-26T05:50:29.542Z,7.40
2022-12-26T06:01:08.852Z,7.86
2022-12-26T06:03:36.322Z,7.50
2022-12-26T06:06:04.502Z,7.56
2022-12-26T06:08:31.605Z,7.51
2022-12-26T06:10:58.872Z,7.33
2022-12-26T06:13:25.685Z,7.93
2022-12-26T06:15:52.661Z,7.89
2022-12-26T06:18:19.403Z,7.49
2022-12-26T06:20:46.114Z,7.71
2022-12-26T06:23:15.259Z,7.46
2022-12-26T06:25:42.049Z,7.48
2022-12-26T06:28:08.769Z,7.43
2022-12-26T06:30:35.875Z,7.23
2022-12-26T06:33:05.977Z,6.88
2022-12-26T06:35:34.498Z,7.35
2022-12-26T06:38:01.366Z,6.94
2022-12-26T06:40:28.194Z,6.44
2022-12-26T06:42:54.926Z,7.11
2022-12-26T06:45:25.622Z,7.13
2022-12-26T06:47:52.446Z,7.35
2022-12-26T06:50:19.307Z,7.14
2022-12-26T06:52:46.266Z,6.97
2022-12-26T06:55:12.987Z,6.91
2022-12-26T06:57:39.708Z,7.08
2022-12-26T07:00:07.638Z,7.06
2022-12-26T07:02:34.652Z,7.34
2022-12-26T07:05:19.130Z,7.25
2022-12-26T07:07:51.169Z,7.16
2022-12-26T07:10:19.111Z,7.08
2022-12-26T07:12:47.171Z,6.88
2022-12-26T07:15:14.338Z,6.70
2022-12-26T07:17:41.390Z,6.34
2022-12-26T07:20:09.733Z,7.18
2022-12-26T07:22:36.786Z,7.06
2022-12-26T07:25:03.927Z,6.84
2022-12-26T07:27:30.951Z,6.98
2022-12-26T07:29:58.189Z,6.51
2022-12-26T07:32:24.994Z,6.88
2022-12-26T07:34:51.787Z,7.21
2022-12-26T07:37:18.588Z,6.78
2022-12-26T07:39:45.338Z,7.19
2022-12-26T07:42:12.038Z,6.98
2022-12-26T07:44:39.575Z,7.14
2022-12-26T07:47:06.404Z,7.03
2022-12-26T07:49:33.182Z,6.62
2022-12-26T07:52:03.657Z,7.29
2022-12-26T07:54:32.690Z,7.24
2022-12-26T07:57:21.923Z,7.16
2022-12-26T07:59:46.567Z,6.85
2022-12-26T08:02:13.703Z,7.28
2022-12-26T08:04:40.689Z,6.85
2022-12-26T08:07:08.201Z,6.90
2022-12-26T08:09:35.377Z,7.09
2022-12-26T08:12:02.524Z,7.05
2022-12-26T08:14:29.643Z,7.08
2022-12-26T08:16:56.742Z,7.70
2022-12-26T08:19:23.747Z,7.46
2022-12-26T08:21:50.929Z,7.59
2022-12-26T08:24:17.870Z,8.00
2022-12-26T08:26:44.683Z,7.91
2022-12-26T08:29:14.285Z,8.16
2022-12-26T08:31:42.575Z,7.94
2022-12-26T08:34:10.136Z,8.26
2022-12-26T08:36:37.062Z,8.25
2022-12-26T08:39:03.847Z,8.30
2022-12-26T08:41:32.475Z,7.90
2022-12-26T08:46:46.675Z,8.22
2022-12-26T08:49:13.863Z,7.67
2022-12-26T08:54:16.040Z,7.87
2022-12-26T08:56:42.897Z,8.03
2022-12-26T08:59:09.758Z,8.26
2022-12-26T09:01:36.738Z,8.78
2022-12-26T09:04:04.555Z,8.74
2022-12-26T09:06:36.360Z,8.50
2022-12-26T09:09:04.525Z,8.40
2022-12-26T09:11:31.765Z,8.29
2022-12-26T09:14:01.162Z,8.53
2022-12-26T09:16:37.199Z,8.29
2022-12-26T09:19:06.519Z,8.65
2022-12-26T09:21:33.625Z,8.70
2022-12-26T09:24:02.532Z,8.52
2022-12-26T09:26:29.903Z,8.72
2022-12-26T09:28:57.907Z,8.72
2022-12-26T09:31:30.369Z,8.77
2022-12-26T09:33:57.495Z,8.82
2022-12-26T09:36:29.399Z,8.76
2022-12-26T09:38:58.138Z,8.75
2022-12-26T09:41:42.839Z,8.71
2022-12-26T09:44:37.428Z,8.78
2022-12-26T09:47:29.035Z,8.86
2022-12-26T09:49:57.842Z,8.94
2022-12-26T09:52:37.275Z,9.14
2022-12-26T09:55:17.045Z,9.21
2022-12-26T09:57:50.461Z,9.29
2022-12-26T10:00:21.236Z,9.51
2022-12-26T10:02:53.737Z,9.44
2022-12-26T10:05:24.183Z,9.52
2022-12-26T10:08:02.066Z,9.49
2022-12-26T10:10:54.969Z,9.58
2022-12-26T10:13:50.476Z,9.48
2022-12-26T10:16:26.076Z,9.28
2022-12-26T10:19:17.865Z,9.41
2022-12-26T10:21:58.807Z,9.43
2022-12-26T10:24:31.117Z,9.47
2022-12-26T10:27:04.554Z,9.35
2022-12-26T10:29:39.062Z,9.49
2022-12-26T10:32:15.300Z,9.61
2022-12-26T10:34:46.042Z,9.73
2022-12-26T10:37:27.237Z,9.72
2022-12-26T10:40:13.636Z,9.70
2022-12-26T10:42:42.880Z,9.67
2022-12-26T10:45:16.205Z,9.90
2022-12-26T10:47:48.269Z,9.92
2022-12-26T10:50:27.341Z,10.09
2022-12-26T10:52:58.945Z,10.08
2022-12-26T10:55:35.869Z,10.19
2022-12-26T10:58:25.401Z,10.17
2022-12-26T11:00:52.386Z,10.15
2022-12-26T11:03:20.916Z,10.07
2022-12-26T11:06:08.448Z,10.07
2022-12-26T11:08:46.815Z,10.17
2022-12-26T11:11:21.723Z,10.03
2022-12-26T11:14:01.902Z,10.11
2022-12-26T11:16:40.316Z,9.88
2022-12-26T11:19:07.659Z,9.84
2022-12-26T11:21:34.565Z,9.67
2022-12-26T11:24:07.301Z,9.74
2022-12-26T11:26:34.379Z,9.50
2022-12-26T11:29:24.281Z,9.53
2022-12-26T11:31:57.757Z,9.38
2022-12-26T11:34:38.666Z,9.39
2022-12-26T11:37:09.823Z,9.37
2022-12-26T11:39:41.293Z,9.46
2022-12-26T11:42:23.236Z,9.55
2022-12-26T11:44:53.583Z,9.37
2022-12-26T11:47:22.987Z,9.17
2022-12-26T11:55:29.411Z,7.98
2022-12-26T11:58:19.907Z,8.05
2022-12-26T12:00:54.502Z,8.04
2022-12-26T12:03:48.568Z,8.09
2022-12-26T12:06:20.818Z,8.11
2022-12-26T12:09:13.080Z,8.15
2022-12-26T12:11:50.101Z,8.30
2022-12-26T12:14:28.320Z,8.29
2022-12-26T12:17:44.612Z,8.29
2022-12-26T12:20:40.538Z,8.24
2022-12-26T12:23:41.448Z,8.07
2022-12-26T12:26:23.273Z,7.82
2022-12-26T12:29:05.144Z,7.55
2022-12-26T12:31:53.465Z,7.32
2022-12-26T12:34:47.635Z,7.13
2022-12-26T12:37:35.106Z,6.93
2022-12-26T12:40:17.978Z,7.02
2022-12-26T12:43:29.318Z,6.94
2022-12-26T12:46:17.262Z,6.88
2022-12-26T12:51:22.652Z,6.94
2022-12-26T13:07:47.168Z,6.72
2022-12-26T13:10:21.794Z,6.69
2022-12-26T13:12:50.689Z,6.77
2022-12-26T13:15:38.870Z,6.86
2022-12-26T13:18:18.090Z,7.65
2022-12-26T13:20:56.032Z,7.44
2022-12-26T13:24:12.099Z,7.28
2022-12-26T13:26:43.837Z,6.88
2022-12-26T13:29:10.456Z,6.88
2022-12-26T13:31:39.006Z,6.86
2022-12-26T13:34:17.905Z,6.87
2022-12-26T13:36:54.888Z,6.92
2022-12-26T13:39:28.706Z,7.11
2022-12-26T13:42:20.184Z,7.15
2022-12-26T13:44:53.154Z,7.09
2022-12-26T13:47:38.552Z,7.10
2022-12-26T13:50:47.166Z,7.10
2022-12-26T13:53:25.456Z,7.25
2022-12-26T13:56:21.181Z,7.28
2022-12-26T13:59:09.510Z,7.19
2022-12-26T14:02:32.232Z,7.12
2022-12-26T14:05:48.503Z,6.95
2022-12-26T14:08:51.360Z,6.65
2022-12-26T14:11:55.150Z,6.72
2022-12-26T14:14:32.097Z,6.64
2022-12-26T14:17:32.807Z,6.62
2022-12-26T14:20:23.681Z,6.62
2022-12-26T14:23:04.778Z,6.53
2022-12-26T14:26:01.798Z,6.59
2022-12-26T14:28:48.551Z,6.57
2022-12-26T14:47:47.890Z,6.40
2022-12-26T14:50:33.239Z,6.35
2022-12-26T14:53:27.577Z,6.36
2022-12-26T14:56:24.501Z,6.41
2022-12-26T14:58:53.420Z,6.32
2022-12-26T15:01:22.994Z,6.32
2022-12-26T15:04:17.736Z,6.29
2022-12-26T15:06:58.593Z,6.20
2022-12-26T15:09:40.693Z,6.28
2022-12-26T15:12:44.070Z,6.18
2022-12-26T15:15:27.382Z,6.23
2022-12-26T15:18:06.506Z,6.07
2022-12-26T15:21:12.373Z,6.18
2022-12-26T15:23:57.212Z,6.11
2022-12-26T15:26:52.218Z,6.10
2022-12-26T15:29:55.282Z,6.05
2022-12-26T15:32:32.445Z,5.66
2022-12-26T15:35:16.968Z,6.02
2022-12-26T15:37:58.951Z,5.38
2022-12-26T15:40:35.960Z,6.03
2022-12-26T15:43:14.467Z,5.33
2022-12-26T16:07:42.223Z,5.34
2022-12-26T16:10:24.291Z,5.99
2022-12-26T16:13:12.397Z,5.98
2022-12-26T16:15:59.117Z,5.81
2022-12-26T16:18:31.617Z,5.90
2022-12-26T16:21:21.203Z,5.73
2022-12-26T16:23:51.116Z,5.27
2022-12-26T16:26:25.855Z,5.41
2022-12-26T16:28:54.330Z,5.24
2022-12-26T16:31:25.353Z,4.94
2022-12-26T16:33:55.064Z,5.29
2022-12-26T16:36:24.755Z,5.48
2022-12-26T16:38:54.738Z,5.25
2022-12-26T16:41:33.201Z,4.83
2022-12-26T16:44:37.018Z,5.06
2022-12-26T16:47:12.815Z,5.15
2022-12-26T16:49:43.702Z,5.10
2022-12-26T16:52:46.679Z,5.13
2022-12-26T16:55:51.415Z,4.88
2022-12-26T16:58:45.802Z,5.42
2022-12-26T17:01:16.553Z,5.24
2022-12-26T17:04:05.131Z,4.94
2022-12-26T17:06:41.799Z,4.94
2022-12-26T17:09:16.994Z,5.13
2022-12-26T17:11:59.056Z,5.38
2022-12-26T17:14:28.119Z,5.34
2022-12-26T17:17:04.388Z,5.31
2022-12-26T17:19:34.234Z,5.14
2022-12-26T17:24:30.893Z,4.52
2022-12-26T17:27:54.581Z,4.69
2022-12-26T17:30:28.620Z,4.46
2022-12-26T17:33:01.544Z,4.31
2022-12-26T17:35:47.128Z,4.55
2022-12-26T17:38:31.047Z,4.67
2022-12-26T17:41:04.487Z,4.40
2022-12-26T17:43:39.364Z,4.97
2022-12-26T17:46:08.855Z,4.92
2022-12-26T17:53:54.222Z,4.88
2022-12-26T17:56:27.211Z,4.76
2022-12-26T17:58:56.152Z,4.84
2022-12-26T18:01:22.935Z,4.85
2022-12-26T18:03:52.172Z,4.83
2022-12-26T18:06:20.124Z,4.54
2022-12-26T18:08:47.087Z,4.41
2022-12-26T18:11:14.607Z,4.69
2022-12-26T18:13:57.629Z,4.69
2022-12-26T18:16:28.349Z,4.60
2022-12-26T18:19:09.525Z,4.33
2022-12-26T18:21:38.926Z,4.63
2022-12-26T18:24:06.448Z,4.44
2022-12-26T18:26:33.414Z,4.35
2022-12-26T18:29:00.826Z,4.48
2022-12-26T18:31:28.301Z,4.38
2022-12-26T18:33:58.211Z,4.05
2022-12-26T18:36:32.718Z,4.11
2022-12-26T18:39:02.422Z,3.93
2022-12-26T18:45:29.704Z,4.01
2022-12-26T18:47:56.924Z,3.87
2022-12-26T18:50:48.375Z,3.95
2022-12-26T18:56:43.572Z,3.21
2022-12-26T18:59:11.249Z,3.77
2022-12-26T19:01:38.000Z,3.67
2022-12-26T19:04:05.045Z,3.50
2022-12-26T19:06:35.310Z,3.54
2022-12-26T19:09:02.087Z,3.53
2022-12-26T19:11:28.852Z,3.53
2022-12-26T19:13:58.192Z,3.47
2022-12-26T19:16:24.961Z,3.19
2022-12-26T19:18:52.573Z,3.39
2022-12-26T19:21:19.424Z,3.33
2022-12-26T19:23:47.848Z,3.29
2022-12-26T19:26:17.324Z,3.36
2022-12-26T19:28:44.544Z,3.25
2022-12-26T19:31:15.428Z,3.14
2022-12-26T19:33:42.590Z,3.24
2022-12-26T19:36:09.898Z,3.19
2022-12-26T19:38:37.266Z,3.18
2022-12-26T19:41:06.133Z,3.17
2022-12-26T19:43:33.554Z,3.22
2022-12-26T19:46:06.780Z,3.18
2022-12-26T19:48:35.079Z,3.08
2022-12-26T19:51:07.207Z,2.91
2022-12-26T19:53:35.097Z,2.93
2022-12-26T19:56:10.531Z,2.90
2022-12-26T19:58:37.565Z,2.94
2022-12-26T20:01:19.101Z,2.73
2022-12-26T20:03:46.255Z,2.79
2022-12-26T20:06:15.921Z,2.99
2022-12-26T20:24:54.909Z,2.98
2022-12-26T20:27:21.620Z,3.30
2022-12-26T20:29:48.415Z,3.28
2022-12-26T20:32:15.234Z,3.27
2022-12-26T20:34:42.464Z,3.20
2022-12-26T20:37:09.160Z,3.20
2022-12-26T20:39:36.129Z,2.89
2022-12-26T20:42:02.797Z,3.05
2022-12-26T20:44:29.809Z,3.10
2022-12-26T20:46:56.880Z,2.83
2022-12-26T20:49:33.892Z,2.86
2022-12-26T20:52:29.994Z,2.25
2022-12-26T20:54:56.760Z,2.64
2022-12-26T21:02:45.759Z,2.59
2022-12-26T21:05:12.638Z,2.58
2022-12-26T21:07:39.726Z,2.49
2022-12-26T21:10:08.242Z,2.50
2022-12-26T21:12:34.920Z,2.32
2022-12-26T21:15:01.698Z,2.37
2022-12-26T21:17:28.627Z,2.15
2022-12-26T21:19:55.391Z,2.22
2022-12-26T21:22:23.685Z,2.20
2022-12-26T21:24:50.536Z,2.23
2022-12-26T21:27:17.343Z,2.18
2022-12-26T21:29:44.088Z,2.28
2022-12-26T21:32:10.996Z,2.25
2022-12-26T21:34:39.052Z,2.30
2022-12-26T21:37:24.600Z,2.34
2022-12-26T21:39:51.458Z,2.53
2022-12-26T21:44:54.051Z,2.62
2022-12-26T21:47:21.483Z,2.54
2022-12-26T21:55:25.928Z,1.79
2022-12-26T22:11:19.027Z,2.03
2022-12-26T22:13:47.141Z,2.09
2022-12-26T22:16:13.873Z,2.15
2022-12-26T22:18:46.368Z,2.17
2022-12-26T22:21:20.433Z,2.16
2022-12-26T22:23:50.770Z,2.17
2022-12-26T22:26:18.881Z,2.09
2022-12-26T22:28:45.660Z,1.97
2022-12-26T22:31:22.683Z,2.15
2022-12-26T22:33:58.888Z,2.19
2022-12-26T22:36:27.623Z,2.21
2022-12-26T22:38:54.573Z,2.12
2022-12-26T22:41:21.476Z,2.16
2022-12-26T22:43:48.233Z,2.24
2022-12-26T22:46:15.502Z,2.30
2022-12-26T22:48:42.267Z,2.35
2022-12-26T22:51:10.123Z,2.36
2022-12-26T22:53:36.752Z,2.26
2022-12-26T22:56:06.315Z,2.31
2022-12-26T22:58:33.892Z,2.43
2022-12-26T23:01:01.086Z,2.45
2022-12-26T23:03:28.474Z,2.38
2022-12-26T23:05:56.118Z,2.35
2022-12-26T23:08:25.997Z,2.43
2022-12-26T23:10:56.152Z,2.42
2022-12-26T23:16:19.748Z,2.40
2022-12-26T23:21:42.074Z,2.34
2022-12-26T23:24:19.660Z,2.39
2022-12-26T23:27:17.038Z,2.30
2022-12-26T23:30:02.617Z,2.38
2022-12-26T23:32:29.405Z,2.39
2022-12-26T23:34:56.474Z,2.39
2022-12-26T23:37:23.175Z,2.36
2022-12-26T23:39:49.946Z,2.32
2022-12-26T23:42:16.656Z,2.34
2022-12-26T23:44:43.400Z,2.30
2022-12-26T23:47:10.580Z,2.46
2022-12-26T23:49:37.207Z,2.44
2022-12-26T23:52:04.015Z,2.56
2022-12-26T23:54:30.961Z,2.46
2022-12-26T23:56:57.712Z,2.54
2022-12-26T23:59:24.517Z,2.51
